PWSweather.com
Personal Weather Stations
Station Observations
CW4114
Near Downtown, Rogers City, MI 49779

Near DowntownRogers City, MI 49779

Lat: 45.417443, Lon: -83.810642

Elevation: 605

Station Type: Davis Vantage Pro2 w/Solar

Latest ConditionsUpdated 8:19:33 PM EDT Friday, Jul 1, 2016
Currently Today's Max Today's Min Today's Average
Temperature 65.5°F18.6°C 67.8°F19.9°C 57.6°F14.2°C 62.3°F16.8°C
Dew Point 45.9°F7.7°C 59.7°F15.4°C 45.3°F7.4°C 54.6°F12.6°C
Winds 1.3 mph N2.1 kmh N 6.3 mph NNE10.1 kmh NNE - 2.3 mph 3.7 kmh
Wind Gusts 3.1 mph5.0 kmh 22.4 mph36.0 kmh - -
Humidity 49% 97% 48% 78%
Pressure 30.02 in1016.6 mb 30.02 in1016.6 mb 29.84 in1010.5 mb -
Precipitation - 0.24 in6.1 mm - -
Hour Temp Dew Point Humidity Winds Wind Gusts Pressure Precip Precip Rate Daily Precip Total
08:19 PM 65.5°F18.6°C 45.9°F7.7°C 49% 1.3 mph N2.1 kmh N 3.1 mph5.0 kmh 30.02 in1016.6 mb 0.00 in0.0 mm 0.00 in0.0 mm 0.24 in6.1 mm
08:14 PM 65.5°F18.6°C 45.3°F7.4°C 48% 3.8 mph NW6.1 kmh NW 11.6 mph18.7 kmh 30.01 in1016.3 mb 0.00 in0.0 mm 0.00 in0.0 mm 0.24 in6.1 mm
08:09 PM 65.7°F18.7°C 46.6°F8.1°C 50% 4.5 mph WNW7.2 kmh WNW 13.9 mph22.4 kmh 30.01 in1016.3 mb 0.00 in0.0 mm 0.00 in0.0 mm 0.24 in6.1 mm
08:04 PM 65.8°F18.8°C 46.8°F8.2°C 50% 0.2 mph N0.3 kmh N 8.5 mph13.7 kmh 30.01 in1016.3 mb 0.00 in0.0 mm 0.00 in0.0 mm 0.24 in6.1 mm
07:59 PM 65.8°F18.8°C 46.8°F8.2°C 50% 1.8 mph NE2.9 kmh NE 10.5 mph16.9 kmh 30.01 in1016.3 mb 0.00 in0.0 mm 0.00 in0.0 mm 0.24 in6.1 mm
07:54 PM 65.7°F18.7°C 46.0°F7.8°C 49% 2.7 mph N4.3 kmh N 11.6 mph18.7 kmh 30.01 in1016.3 mb 0.00 in0.0 mm 0.00 in0.0 mm 0.24 in6.1 mm
07:49 PM 65.8°F18.8°C 46.8°F8.2°C 50% 3.4 mph N5.5 kmh N 12.8 mph20.6 kmh 30.01 in1016.3 mb 0.00 in0.0 mm 0.00 in0.0 mm 0.24 in6.1 mm
07:44 PM 65.8°F18.8°C 47.7°F8.7°C 52% 0.9 mph NW1.4 kmh NW 5.4 mph8.7 kmh 30.01 in1016.3 mb 0.00 in0.0 mm 0.00 in0.0 mm 0.24 in6.1 mm
07:39 PM 65.8°F18.8°C 46.8°F8.2°C 50% 2.5 mph W4.0 kmh W 11.6 mph18.7 kmh 30.01 in1016.3 mb 0.00 in0.0 mm 0.00 in0.0 mm 0.24 in6.1 mm
07:34 PM 65.8°F18.8°C 49.3°F9.6°C 55% 3.6 mph NW5.8 kmh NW 10.5 mph16.9 kmh 30.01 in1016.3 mb 0.00 in0.0 mm 0.00 in0.0 mm 0.24 in6.1 mm
07:29 PM 65.5°F18.6°C 50.4°F10.2°C 58% 1.8 mph NNW2.9 kmh NNW 7.4 mph11.9 kmh 30.01 in1016.3 mb 0.00 in0.0 mm 0.00 in0.0 mm 0.24 in6.1 mm
07:24 PM 65.7°F18.7°C 50.0°F10.0°C 57% 3.6 mph N5.8 kmh N 7.4 mph11.9 kmh 30.01 in1016.3 mb 0.00 in0.0 mm 0.00 in0.0 mm 0.24 in6.1 mm
07:19 PM 65.8°F18.8°C 50.2°F10.1°C 57% 1.3 mph WNW2.1 kmh WNW 3.1 mph5.0 kmh 30.01 in1016.3 mb 0.00 in0.0 mm 0.00 in0.0 mm 0.24 in6.1 mm
07:14 PM 66.6°F19.2°C 49.5°F9.7°C 54% 1.3 mph NW2.1 kmh NW 6.3 mph10.1 kmh 30.01 in1016.3 mb 0.00 in0.0 mm 0.00 in0.0 mm 0.24 in6.1 mm
07:09 PM 66.7°F19.3°C 48.6°F9.2°C 52% 2.5 mph N4.0 kmh N 10.5 mph16.9 kmh 30.01 in1016.3 mb 0.00 in0.0 mm 0.00 in0.0 mm 0.24 in6.1 mm
07:04 PM 66.7°F19.3°C 48.6°F9.2°C 52% 2.9 mph WNW4.7 kmh WNW 11.6 mph18.7 kmh 30.00 in1015.9 mb 0.00 in0.0 mm 0.00 in0.0 mm 0.24 in6.1 mm
06:59 PM 66.7°F19.3°C 48.0°F8.9°C 51% 1.6 mph N2.6 kmh N 8.5 mph13.7 kmh 30.00 in1015.9 mb 0.00 in0.0 mm 0.00 in0.0 mm 0.24 in6.1 mm
06:54 PM 66.7°F19.3°C 47.5°F8.6°C 50% 1.3 mph 2.1 kmh 9.6 mph15.4 kmh 30.00 in1015.9 mb 0.00 in0.0 mm 0.00 in0.0 mm 0.24 in6.1 mm
06:49 PM 66.7°F19.3°C 48.0°F8.9°C 51% 2.9 mph NNW4.7 kmh NNW 10.5 mph16.9 kmh 30.00 in1015.9 mb 0.00 in0.0 mm 0.00 in0.0 mm 0.24 in6.1 mm
06:44 PM 66.7°F19.3°C 49.1°F9.5°C 53% 1.8 mph ENE2.9 kmh ENE 12.8 mph20.6 kmh 30.00 in1015.9 mb 0.00 in0.0 mm 0.00 in0.0 mm 0.24 in6.1 mm
06:39 PM 66.7°F19.3°C 49.6°F9.8°C 54% 3.1 mph NW5.0 kmh NW 11.6 mph18.7 kmh 30.00 in1015.9 mb 0.00 in0.0 mm 0.00 in0.0 mm 0.24 in6.1 mm
06:34 PM 66.7°F19.3°C 50.0°F10.0°C 55% 1.8 mph NW2.9 kmh NW 11.6 mph18.7 kmh 30.00 in1015.9 mb 0.00 in0.0 mm 0.00 in0.0 mm 0.24 in6.1 mm
06:29 PM 66.9°F19.4°C 49.8°F9.9°C 54% 2.5 mph N4.0 kmh N 7.4 mph11.9 kmh 30.00 in1015.9 mb 0.00 in0.0 mm 0.00 in0.0 mm 0.24 in6.1 mm
06:24 PM 67.1°F19.5°C 50.9°F10.5°C 56% 1.8 mph NW2.9 kmh NW 11.6 mph18.7 kmh 30.00 in1015.9 mb 0.00 in0.0 mm 0.00 in0.0 mm 0.24 in6.1 mm
06:19 PM 67.3°F19.6°C 51.1°F10.6°C 56% 3.4 mph WSW5.5 kmh WSW 7.4 mph11.9 kmh 30.00 in1015.9 mb 0.00 in0.0 mm 0.00 in0.0 mm 0.24 in6.1 mm
06:14 PM 67.5°F19.7°C 51.3°F10.7°C 56% 4.0 mph N6.4 kmh N 9.6 mph15.4 kmh 30.00 in1015.9 mb 0.00 in0.0 mm 0.00 in0.0 mm 0.24 in6.1 mm
06:09 PM 67.5°F19.7°C 51.6°F10.9°C 57% 3.1 mph WSW5.0 kmh WSW 12.8 mph20.6 kmh 30.00 in1015.9 mb 0.00 in0.0 mm 0.00 in0.0 mm 0.24 in6.1 mm
06:04 PM 67.6°F19.8°C 52.3°F11.3°C 58% 1.1 mph E1.8 kmh E 8.5 mph13.7 kmh 30.00 in1015.9 mb 0.00 in0.0 mm 0.00 in0.0 mm 0.24 in6.1 mm
05:59 PM 67.6°F19.8°C 51.4°F10.8°C 56% 1.8 mph NNW2.9 kmh NNW 4.3 mph6.9 kmh 29.99 in1015.6 mb 0.00 in0.0 mm 0.00 in0.0 mm 0.24 in6.1 mm
05:54 PM 67.6°F19.8°C 51.8°F11.0°C 57% 2.2 mph NNW3.5 kmh NNW 7.4 mph11.9 kmh 30.00 in1015.9 mb 0.00 in0.0 mm 0.00 in0.0 mm 0.24 in6.1 mm
05:49 PM 67.6°F19.8°C 50.4°F10.2°C 54% 2.9 mph NW4.7 kmh NW 10.5 mph16.9 kmh 29.99 in1015.6 mb 0.00 in0.0 mm 0.00 in0.0 mm 0.24 in6.1 mm
05:44 PM 67.8°F19.9°C 50.0°F10.0°C 53% 4.3 mph NW6.9 kmh NW 13.9 mph22.4 kmh 29.99 in1015.6 mb 0.00 in0.0 mm 0.00 in0.0 mm 0.24 in6.1 mm
05:39 PM 67.5°F19.7°C 49.8°F9.9°C 53% 4.5 mph WNW7.2 kmh WNW 11.6 mph18.7 kmh 29.99 in1015.6 mb 0.00 in0.0 mm 0.00 in0.0 mm 0.24 in6.1 mm
05:34 PM 67.3°F19.6°C 50.5°F10.3°C 55% 2.0 mph NW3.2 kmh NW 13.9 mph22.4 kmh 29.99 in1015.6 mb 0.00 in0.0 mm 0.00 in0.0 mm 0.24 in6.1 mm
05:29 PM 67.3°F19.6°C 51.1°F10.6°C 56% 2.5 mph N4.0 kmh N 10.5 mph16.9 kmh 29.99 in1015.6 mb 0.00 in0.0 mm 0.00 in0.0 mm 0.24 in6.1 mm
05:24 PM 67.3°F19.6°C 51.1°F10.6°C 56% 1.3 mph NNE2.1 kmh NNE 8.5 mph13.7 kmh 29.99 in1015.6 mb 0.00 in0.0 mm 0.00 in0.0 mm 0.24 in6.1 mm
05:19 PM 67.3°F19.6°C 51.4°F10.8°C 57% 3.4 mph N5.5 kmh N 15.9 mph25.6 kmh 29.99 in1015.6 mb 0.00 in0.0 mm 0.00 in0.0 mm 0.24 in6.1 mm
05:14 PM 67.3°F19.6°C 49.6°F9.8°C 53% 4.3 mph NW6.9 kmh NW 13.9 mph22.4 kmh 29.99 in1015.6 mb 0.00 in0.0 mm 0.00 in0.0 mm 0.24 in6.1 mm
05:09 PM 67.3°F19.6°C 49.1°F9.5°C 52% 4.5 mph NNW7.2 kmh NNW 12.8 mph20.6 kmh 29.99 in1015.6 mb 0.00 in0.0 mm 0.00 in0.0 mm 0.24 in6.1 mm
05:04 PM 67.8°F19.9°C 48.6°F9.2°C 50% 6.0 mph W9.7 kmh W 18.1 mph29.1 kmh 29.99 in1015.6 mb 0.00 in0.0 mm 0.00 in0.0 mm 0.24 in6.1 mm
04:59 PM 67.6°F19.8°C 49.8°F9.9°C 53% 3.1 mph NNE5.0 kmh NNE 15.9 mph25.6 kmh 29.99 in1015.6 mb 0.00 in0.0 mm 0.00 in0.0 mm 0.24 in6.1 mm
04:54 PM 67.5°F19.7°C 48.7°F9.3°C 51% 3.6 mph N5.8 kmh N 9.6 mph15.4 kmh 29.98 in1015.2 mb 0.00 in0.0 mm 0.00 in0.0 mm 0.24 in6.1 mm
04:49 PM 67.5°F19.7°C 48.7°F9.3°C 51% 3.1 mph SSW5.0 kmh SSW 14.8 mph23.8 kmh 29.98 in1015.2 mb 0.00 in0.0 mm 0.00 in0.0 mm 0.24 in6.1 mm
04:44 PM 67.8°F19.9°C 49.6°F9.8°C 52% 4.0 mph N6.4 kmh N 13.9 mph22.4 kmh 29.99 in1015.6 mb 0.00 in0.0 mm 0.00 in0.0 mm 0.24 in6.1 mm
04:39 PM 67.8°F19.9°C 48.6°F9.2°C 50% 2.2 mph N3.5 kmh N 12.8 mph20.6 kmh 29.98 in1015.2 mb 0.00 in0.0 mm 0.00 in0.0 mm 0.24 in6.1 mm
04:34 PM 67.3°F19.6°C 49.6°F9.8°C 53% 2.2 mph NNE3.5 kmh NNE 15.9 mph25.6 kmh 29.98 in1015.2 mb 0.00 in0.0 mm 0.00 in0.0 mm 0.24 in6.1 mm
04:29 PM 67.3°F19.6°C 49.1°F9.5°C 52% 4.7 mph N7.6 kmh N 14.8 mph23.8 kmh 29.98 in1015.2 mb 0.00 in0.0 mm 0.00 in0.0 mm 0.24 in6.1 mm
04:24 PM 67.3°F19.6°C 49.1°F9.5°C 52% 4.7 mph NW7.6 kmh NW 14.8 mph23.8 kmh 29.98 in1015.2 mb 0.00 in0.0 mm 0.00 in0.0 mm 0.24 in6.1 mm
04:19 PM 67.5°F19.7°C 49.3°F9.6°C 52% 5.4 mph SSE8.7 kmh SSE 17.0 mph27.4 kmh 29.98 in1015.2 mb 0.00 in0.0 mm 0.00 in0.0 mm 0.24 in6.1 mm
04:14 PM 67.3°F19.6°C 49.1°F9.5°C 52% 3.6 mph NW5.8 kmh NW 18.1 mph29.1 kmh 29.98 in1015.2 mb 0.00 in0.0 mm 0.00 in0.0 mm 0.24 in6.1 mm
04:09 PM 67.5°F19.7°C 49.3°F9.6°C 52% 5.6 mph WNW9.0 kmh WNW 18.1 mph29.1 kmh 29.98 in1015.2 mb 0.00 in0.0 mm 0.00 in0.0 mm 0.24 in6.1 mm
04:04 PM 67.1°F19.5°C 48.9°F9.4°C 52% 5.1 mph NW8.2 kmh NW 17.0 mph27.4 kmh 29.98 in1015.2 mb 0.00 in0.0 mm 0.00 in0.0 mm 0.24 in6.1 mm
03:59 PM 66.9°F19.4°C 49.3°F9.6°C 53% 5.8 mph W9.3 kmh W 13.9 mph22.4 kmh 29.98 in1015.2 mb 0.00 in0.0 mm 0.00 in0.0 mm 0.24 in6.1 mm
03:54 PM 66.9°F19.4°C 48.7°F9.3°C 52% 3.4 mph N5.5 kmh N 17.0 mph27.4 kmh 29.98 in1015.2 mb 0.00 in0.0 mm 0.00 in0.0 mm 0.24 in6.1 mm
03:49 PM 66.7°F19.3°C 50.5°F10.3°C 56% 4.0 mph NW6.4 kmh NW 14.8 mph23.8 kmh 29.98 in1015.2 mb 0.00 in0.0 mm 0.00 in0.0 mm 0.24 in6.1 mm
03:44 PM 66.2°F19.0°C 49.1°F9.5°C 54% 4.5 mph N7.2 kmh N 10.5 mph16.9 kmh 29.98 in1015.2 mb 0.00 in0.0 mm 0.00 in0.0 mm 0.24 in6.1 mm
03:39 PM 66.6°F19.2°C 49.5°F9.7°C 54% 2.9 mph SSE4.7 kmh SSE 15.9 mph25.6 kmh 29.98 in1015.2 mb 0.00 in0.0 mm 0.00 in0.0 mm 0.24 in6.1 mm
03:34 PM 67.1°F19.5°C 49.5°F9.7°C 53% 5.6 mph N9.0 kmh N 20.1 mph32.3 kmh 29.97 in1014.9 mb 0.00 in0.0 mm 0.00 in0.0 mm 0.24 in6.1 mm
03:29 PM 66.9°F19.4°C 50.2°F10.1°C 55% 2.7 mph WNW4.3 kmh WNW 19.0 mph30.6 kmh 29.97 in1014.9 mb 0.00 in0.0 mm 0.00 in0.0 mm 0.24 in6.1 mm
03:24 PM 66.4°F19.1°C 49.6°F9.8°C 55% 4.5 mph N7.2 kmh N 13.9 mph22.4 kmh 29.97 in1014.9 mb 0.00 in0.0 mm 0.00 in0.0 mm 0.24 in6.1 mm
03:19 PM 66.6°F19.2°C 49.8°F9.9°C 55% 4.9 mph NNW7.9 kmh NNW 13.9 mph22.4 kmh 29.97 in1014.9 mb 0.00 in0.0 mm 0.00 in0.0 mm 0.24 in6.1 mm
03:14 PM 66.4°F19.1°C 50.7°F10.4°C 57% 3.1 mph NW5.0 kmh NW 12.8 mph20.6 kmh 29.97 in1014.9 mb 0.00 in0.0 mm 0.00 in0.0 mm 0.24 in6.1 mm
03:09 PM 66.0°F18.9°C 49.8°F9.9°C 56% 3.8 mph N6.1 kmh N 15.9 mph25.6 kmh 29.97 in1014.9 mb 0.00 in0.0 mm 0.00 in0.0 mm 0.24 in6.1 mm
03:04 PM 65.8°F18.8°C 49.6°F9.8°C 56% 3.4 mph W5.5 kmh W 14.8 mph23.8 kmh 29.97 in1014.9 mb 0.00 in0.0 mm 0.00 in0.0 mm 0.24 in6.1 mm
02:59 PM 65.7°F18.7°C 50.0°F10.0°C 57% 2.7 mph N4.3 kmh N 18.1 mph29.1 kmh 29.97 in1014.9 mb 0.00 in0.0 mm 0.00 in0.0 mm 0.24 in6.1 mm
02:54 PM 65.8°F18.8°C 50.2°F10.1°C 57% 3.8 mph NNW6.1 kmh NNW 11.6 mph18.7 kmh 29.97 in1014.9 mb 0.00 in0.0 mm 0.00 in0.0 mm 0.24 in6.1 mm
02:49 PM 65.5°F18.6°C 50.7°F10.4°C 59% 2.5 mph NW4.0 kmh NW 14.8 mph23.8 kmh 29.97 in1014.9 mb 0.00 in0.0 mm 0.00 in0.0 mm 0.24 in6.1 mm
02:44 PM 65.8°F18.8°C 50.2°F10.1°C 57% 3.4 mph N5.5 kmh N 13.9 mph22.4 kmh 29.97 in1014.9 mb 0.00 in0.0 mm 0.00 in0.0 mm 0.24 in6.1 mm
02:39 PM 65.7°F18.7°C 49.5°F9.7°C 56% 4.7 mph NW7.6 kmh NW 20.1 mph32.3 kmh 29.97 in1014.9 mb 0.00 in0.0 mm 0.00 in0.0 mm 0.24 in6.1 mm
02:34 PM 65.5°F18.6°C 50.7°F10.4°C 59% 3.4 mph N5.5 kmh N 21.3 mph34.3 kmh 29.97 in1014.9 mb 0.00 in0.0 mm 0.00 in0.0 mm 0.24 in6.1 mm
02:29 PM 65.1°F18.4°C 50.9°F10.5°C 60% 3.1 mph E5.0 kmh E 13.9 mph22.4 kmh 29.97 in1014.9 mb 0.00 in0.0 mm 0.00 in0.0 mm 0.24 in6.1 mm
02:24 PM 65.1°F18.4°C 49.5°F9.7°C 57% 4.5 mph NW7.2 kmh NW 12.8 mph20.6 kmh 29.97 in1014.9 mb 0.00 in0.0 mm 0.00 in0.0 mm 0.24 in6.1 mm
02:19 PM 65.3°F18.5°C 51.4°F10.8°C 61% 5.6 mph WSW9.0 kmh WSW 12.8 mph20.6 kmh 29.97 in1014.9 mb 0.00 in0.0 mm 0.00 in0.0 mm 0.24 in6.1 mm
02:14 PM 65.1°F18.4°C 50.4°F10.2°C 59% 4.9 mph NE7.9 kmh NE 12.8 mph20.6 kmh 29.97 in1014.9 mb 0.00 in0.0 mm 0.00 in0.0 mm 0.24 in6.1 mm
02:09 PM 64.9°F18.3°C 50.2°F10.1°C 59% 3.4 mph N5.5 kmh N 20.1 mph32.3 kmh 29.97 in1014.9 mb 0.00 in0.0 mm 0.00 in0.0 mm 0.24 in6.1 mm
02:04 PM 64.8°F18.2°C 50.5°F10.3°C 60% 4.3 mph NW6.9 kmh NW 22.4 mph36.0 kmh 29.97 in1014.9 mb 0.00 in0.0 mm 0.00 in0.0 mm 0.24 in6.1 mm
01:59 PM 64.6°F18.1°C 50.4°F10.2°C 60% 2.9 mph NW4.7 kmh NW 14.8 mph23.8 kmh 29.97 in1014.9 mb 0.00 in0.0 mm 0.00 in0.0 mm 0.24 in6.1 mm
01:54 PM 64.9°F18.3°C 49.8°F9.9°C 58% 2.9 mph N4.7 kmh N 12.8 mph20.6 kmh 29.97 in1014.9 mb 0.00 in0.0 mm 0.00 in0.0 mm 0.24 in6.1 mm
01:49 PM 65.5°F18.6°C 51.6°F10.9°C 61% 3.8 mph N6.1 kmh N 13.9 mph22.4 kmh 29.97 in1014.9 mb 0.00 in0.0 mm 0.00 in0.0 mm 0.24 in6.1 mm
01:44 PM 64.8°F18.2°C 51.8°F11.0°C 63% 3.6 mph NNE5.8 kmh NNE 12.8 mph20.6 kmh 29.97 in1014.9 mb 0.00 in0.0 mm 0.00 in0.0 mm 0.24 in6.1 mm
01:39 PM 64.9°F18.3°C 51.6°F10.9°C 62% 2.9 mph WNW4.7 kmh WNW 14.8 mph23.8 kmh 29.97 in1014.9 mb 0.00 in0.0 mm 0.00 in0.0 mm 0.24 in6.1 mm
01:34 PM 64.9°F18.3°C 52.0°F11.1°C 63% 4.3 mph NNE6.9 kmh NNE 15.9 mph25.6 kmh 29.96 in1014.6 mb 0.00 in0.0 mm 0.00 in0.0 mm 0.24 in6.1 mm
01:29 PM 64.8°F18.2°C 51.4°F10.8°C 62% 3.8 mph N6.1 kmh N 18.1 mph29.1 kmh 29.96 in1014.6 mb 0.00 in0.0 mm 0.00 in0.0 mm 0.24 in6.1 mm
01:24 PM 64.4°F18.0°C 52.0°F11.1°C 64% 5.1 mph W8.2 kmh W 21.3 mph34.3 kmh 29.96 in1014.6 mb 0.00 in0.0 mm 0.00 in0.0 mm 0.24 in6.1 mm
01:19 PM 64.4°F18.0°C 51.1°F10.6°C 62% 6.3 mph NNE10.1 kmh NNE 22.4 mph36.0 kmh 29.96 in1014.6 mb 0.00 in0.0 mm 0.00 in0.0 mm 0.24 in6.1 mm
01:14 PM 64.2°F17.9°C 51.4°F10.8°C 63% 4.7 mph SW7.6 kmh SW 11.6 mph18.7 kmh 29.96 in1014.6 mb 0.00 in0.0 mm 0.00 in0.0 mm 0.24 in6.1 mm
01:09 PM 64.4°F18.0°C 51.1°F10.6°C 62% 3.1 mph WSW5.0 kmh WSW 12.8 mph20.6 kmh 29.96 in1014.6 mb 0.00 in0.0 mm 0.00 in0.0 mm 0.24 in6.1 mm
01:04 PM 64.2°F17.9°C 51.8°F11.0°C 64% 6.0 mph NNW9.7 kmh NNW 14.8 mph23.8 kmh 29.96 in1014.6 mb 0.00 in0.0 mm 0.00 in0.0 mm 0.24 in6.1 mm
12:59 PM 64.9°F18.3°C 52.0°F11.1°C 63% 4.3 mph N6.9 kmh N 14.8 mph23.8 kmh 29.96 in1014.6 mb 0.00 in0.0 mm 0.00 in0.0 mm 0.24 in6.1 mm
12:54 PM 64.6°F18.1°C 52.9°F11.6°C 66% 4.3 mph NW6.9 kmh NW 15.9 mph25.6 kmh 29.96 in1014.6 mb 0.00 in0.0 mm 0.00 in0.0 mm 0.24 in6.1 mm
12:49 PM 64.0°F17.8°C 53.2°F11.8°C 68% 4.9 mph WSW7.9 kmh WSW 17.0 mph27.4 kmh 29.96 in1014.6 mb 0.00 in0.0 mm 0.00 in0.0 mm 0.24 in6.1 mm
12:44 PM 63.9°F17.7°C 52.7°F11.5°C 67% 3.6 mph NE5.8 kmh NE 12.8 mph20.6 kmh 29.95 in1014.2 mb 0.00 in0.0 mm 0.00 in0.0 mm 0.24 in6.1 mm
12:39 PM 64.0°F17.8°C 54.5°F12.5°C 71% 3.6 mph NNE5.8 kmh NNE 15.9 mph25.6 kmh 29.96 in1014.6 mb 0.00 in0.0 mm 0.00 in0.0 mm 0.24 in6.1 mm
12:34 PM 63.9°F17.7°C 53.4°F11.9°C 69% 2.9 mph N4.7 kmh N 14.8 mph23.8 kmh 29.95 in1014.2 mb 0.00 in0.0 mm 0.00 in0.0 mm 0.24 in6.1 mm
12:29 PM 63.1°F17.3°C 54.0°F12.2°C 72% 4.9 mph NNE7.9 kmh NNE 14.8 mph23.8 kmh 29.95 in1014.2 mb 0.00 in0.0 mm 0.00 in0.0 mm 0.24 in6.1 mm
12:24 PM 63.5°F17.5°C 54.7°F12.6°C 73% 4.5 mph W7.2 kmh W 19.0 mph30.6 kmh 29.95 in1014.2 mb 0.00 in0.0 mm 0.00 in0.0 mm 0.24 in6.1 mm
12:19 PM 63.3°F17.4°C 55.2°F12.9°C 75% 4.9 mph NW7.9 kmh NW 15.9 mph25.6 kmh 29.95 in1014.2 mb 0.00 in0.0 mm 0.00 in0.0 mm 0.24 in6.1 mm
12:14 PM 63.1°F17.3°C 55.8°F13.2°C 77% 3.1 mph WNW5.0 kmh WNW 10.5 mph16.9 kmh 29.95 in1014.2 mb 0.00 in0.0 mm 0.00 in0.0 mm 0.24 in6.1 mm
12:09 PM 63.0°F17.2°C 55.6°F13.1°C 77% 2.2 mph ENE3.5 kmh ENE 8.5 mph13.7 kmh 29.95 in1014.2 mb 0.00 in0.0 mm 0.00 in0.0 mm 0.24 in6.1 mm
12:04 PM 63.3°F17.4°C 55.9°F13.3°C 77% 2.9 mph NE4.7 kmh NE 14.8 mph23.8 kmh 29.95 in1014.2 mb 0.00 in0.0 mm 0.00 in0.0 mm 0.24 in6.1 mm
11:59 AM 63.1°F17.3°C 56.5°F13.6°C 79% 2.9 mph NNW4.7 kmh NNW 13.9 mph22.4 kmh 29.94 in1013.9 mb 0.00 in0.0 mm 0.00 in0.0 mm 0.24 in6.1 mm
11:54 AM 62.8°F17.1°C 56.5°F13.6°C 80% 2.2 mph NW3.5 kmh NW 14.8 mph23.8 kmh 29.94 in1013.9 mb 0.00 in0.0 mm 0.00 in0.0 mm 0.24 in6.1 mm
11:49 AM 62.4°F16.9°C 56.1°F13.4°C 80% 2.0 mph WNW3.2 kmh WNW 11.6 mph18.7 kmh 29.94 in1013.9 mb 0.00 in0.0 mm 0.00 in0.0 mm 0.24 in6.1 mm
11:44 AM 62.1°F16.7°C 55.8°F13.2°C 80% 1.6 mph NNW2.6 kmh NNW 10.5 mph16.9 kmh 29.94 in1013.9 mb 0.00 in0.0 mm 0.00 in0.0 mm 0.24 in6.1 mm
11:39 AM 62.4°F16.9°C 56.1°F13.4°C 80% 1.6 mph NNE2.6 kmh NNE 9.6 mph15.4 kmh 29.94 in1013.9 mb 0.00 in0.0 mm 0.00 in0.0 mm 0.24 in6.1 mm
11:34 AM 61.9°F16.6°C 55.9°F13.3°C 81% 1.8 mph NNW2.9 kmh NNW 8.5 mph13.7 kmh 29.94 in1013.9 mb 0.00 in0.0 mm 0.00 in0.0 mm 0.24 in6.1 mm
11:28 AM 61.5°F16.4°C 55.6°F13.1°C 81% 2.0 mph E3.2 kmh E 8.5 mph13.7 kmh 29.94 in1013.9 mb 0.00 in0.0 mm 0.00 in0.0 mm 0.24 in6.1 mm
11:23 AM 60.4°F15.8°C 55.2°F12.9°C 83% 2.5 mph NNW4.0 kmh NNW 11.6 mph18.7 kmh 29.93 in1013.5 mb 0.00 in0.0 mm 0.00 in0.0 mm 0.24 in6.1 mm
11:18 AM 59.9°F15.5°C 55.0°F12.8°C 84% 3.8 mph NNE6.1 kmh NNE 11.6 mph18.7 kmh 29.93 in1013.5 mb 0.00 in0.0 mm 0.00 in0.0 mm 0.24 in6.1 mm
11:13 AM 59.4°F15.2°C 54.5°F12.5°C 84% 3.1 mph N5.0 kmh N 10.5 mph16.9 kmh 29.93 in1013.5 mb 0.00 in0.0 mm 0.00 in0.0 mm 0.24 in6.1 mm
11:08 AM 59.5°F15.3°C 54.3°F12.4°C 83% 2.2 mph 3.5 kmh 17.0 mph27.4 kmh 29.93 in1013.5 mb 0.00 in0.0 mm 0.00 in0.0 mm 0.24 in6.1 mm
11:03 AM 60.1°F15.6°C 55.2°F12.9°C 84% 2.0 mph N3.2 kmh N 8.5 mph13.7 kmh 29.93 in1013.5 mb 0.00 in0.0 mm 0.00 in0.0 mm 0.24 in6.1 mm
10:58 AM 59.5°F15.3°C 54.7°F12.6°C 84% 3.4 mph N5.5 kmh N 12.8 mph20.6 kmh 29.93 in1013.5 mb 0.00 in0.0 mm 0.00 in0.0 mm 0.24 in6.1 mm
10:53 AM 59.4°F15.2°C 54.9°F12.7°C 85% 2.7 mph ENE4.3 kmh ENE 13.9 mph22.4 kmh 29.93 in1013.5 mb 0.00 in0.0 mm 0.00 in0.0 mm 0.24 in6.1 mm
10:48 AM 59.2°F15.1°C 55.0°F12.8°C 86% 3.1 mph NNE5.0 kmh NNE 14.8 mph23.8 kmh 29.93 in1013.5 mb 0.00 in0.0 mm 0.00 in0.0 mm 0.24 in6.1 mm
10:43 AM 59.2°F15.1°C 54.7°F12.6°C 85% 4.5 mph NNW7.2 kmh NNW 15.9 mph25.6 kmh 29.92 in1013.2 mb 0.00 in0.0 mm 0.00 in0.0 mm 0.24 in6.1 mm
10:38 AM 59.4°F15.2°C 55.2°F12.9°C 86% 2.9 mph SW4.7 kmh SW 11.6 mph18.7 kmh 29.92 in1013.2 mb 0.00 in0.0 mm 0.00 in0.0 mm 0.24 in6.1 mm
10:33 AM 59.7°F15.4°C 55.6°F13.1°C 86% 2.2 mph W3.5 kmh W 17.0 mph27.4 kmh 29.92 in1013.2 mb 0.00 in0.0 mm 0.00 in0.0 mm 0.24 in6.1 mm
10:28 AM 59.5°F15.3°C 55.6°F13.1°C 87% 4.5 mph NNW7.2 kmh NNW 11.6 mph18.7 kmh 29.92 in1013.2 mb 0.00 in0.0 mm 0.00 in0.0 mm 0.24 in6.1 mm
10:23 AM 59.5°F15.3°C 55.9°F13.3°C 88% 3.1 mph N5.0 kmh N 12.8 mph20.6 kmh 29.92 in1013.2 mb 0.00 in0.0 mm 0.00 in0.0 mm 0.24 in6.1 mm
10:18 AM 59.5°F15.3°C 55.9°F13.3°C 88% 3.1 mph NE5.0 kmh NE 10.5 mph16.9 kmh 29.92 in1013.2 mb 0.00 in0.0 mm 0.00 in0.0 mm 0.24 in6.1 mm
10:13 AM 59.7°F15.4°C 56.8°F13.8°C 90% 2.7 mph N4.3 kmh N 8.5 mph13.7 kmh 29.92 in1013.2 mb 0.00 in0.0 mm 0.00 in0.0 mm 0.24 in6.1 mm
10:08 AM 59.5°F15.3°C 56.3°F13.5°C 89% 3.1 mph WNW5.0 kmh WNW 11.6 mph18.7 kmh 29.92 in1013.2 mb 0.00 in0.0 mm 0.00 in0.0 mm 0.24 in6.1 mm
10:03 AM 59.5°F15.3°C 56.3°F13.5°C 89% 2.0 mph W3.2 kmh W 10.5 mph16.9 kmh 29.91 in1012.9 mb 0.00 in0.0 mm 0.00 in0.0 mm 0.24 in6.1 mm
09:58 AM 59.4°F15.2°C 56.1°F13.4°C 89% 4.3 mph NNW6.9 kmh NNW 19.0 mph30.6 kmh 29.91 in1012.9 mb 0.00 in0.0 mm 0.00 in0.0 mm 0.24 in6.1 mm
09:53 AM 59.4°F15.2°C 56.1°F13.4°C 89% 2.9 mph WSW4.7 kmh WSW 15.9 mph25.6 kmh 29.91 in1012.9 mb 0.00 in0.0 mm 0.00 in0.0 mm 0.24 in6.1 mm
09:48 AM 59.4°F15.2°C 56.5°F13.6°C 90% 3.4 mph NNW5.5 kmh NNW 14.8 mph23.8 kmh 29.91 in1012.9 mb 0.00 in0.0 mm 0.00 in0.0 mm 0.24 in6.1 mm
09:43 AM 59.4°F15.2°C 56.5°F13.6°C 90% 2.9 mph N4.7 kmh N 10.5 mph16.9 kmh 29.91 in1012.9 mb 0.00 in0.0 mm 0.00 in0.0 mm 0.24 in6.1 mm
09:38 AM 59.4°F15.2°C 56.5°F13.6°C 90% 4.3 mph SE6.9 kmh SE 11.6 mph18.7 kmh 29.91 in1012.9 mb 0.00 in0.0 mm 0.00 in0.0 mm 0.24 in6.1 mm
09:33 AM 59.2°F15.1°C 56.3°F13.5°C 90% 3.4 mph NNE5.5 kmh NNE 13.9 mph22.4 kmh 29.91 in1012.9 mb 0.00 in0.0 mm 0.00 in0.0 mm 0.24 in6.1 mm
09:28 AM 59.2°F15.1°C 56.3°F13.5°C 90% 2.9 mph N4.7 kmh N 11.6 mph18.7 kmh 29.90 in1012.5 mb 0.00 in0.0 mm 0.00 in0.0 mm 0.24 in6.1 mm
09:23 AM 59.2°F15.1°C 56.5°F13.6°C 91% 3.1 mph N5.0 kmh N 11.6 mph18.7 kmh 29.90 in1012.5 mb 0.00 in0.0 mm 0.00 in0.0 mm 0.24 in6.1 mm
09:18 AM 59.0°F15.0°C 56.3°F13.5°C 91% 3.1 mph 5.0 kmh 12.8 mph20.6 kmh 29.90 in1012.5 mb 0.00 in0.0 mm 0.00 in0.0 mm 0.24 in6.1 mm
09:13 AM 59.0°F15.0°C 56.7°F13.7°C 92% 2.7 mph NW4.3 kmh NW 12.8 mph20.6 kmh 29.90 in1012.5 mb 0.00 in0.0 mm 0.00 in0.0 mm 0.24 in6.1 mm
09:08 AM 58.8°F14.9°C 56.5°F13.6°C 92% 3.8 mph WNW6.1 kmh WNW 12.8 mph20.6 kmh 29.89 in1012.2 mb 0.00 in0.0 mm 0.00 in0.0 mm 0.24 in6.1 mm
09:03 AM 58.8°F14.9°C 56.8°F13.8°C 93% 4.0 mph NE6.4 kmh NE 13.9 mph22.4 kmh 29.89 in1012.2 mb 0.00 in0.0 mm 0.00 in0.0 mm 0.24 in6.1 mm
08:58 AM 58.6°F14.8°C 56.8°F13.8°C 94% 2.5 mph NW4.0 kmh NW 11.6 mph18.7 kmh 29.89 in1012.2 mb 0.00 in0.0 mm 0.00 in0.0 mm 0.24 in6.1 mm
08:53 AM 58.5°F14.7°C 56.7°F13.7°C 94% 2.7 mph NW4.3 kmh NW 12.8 mph20.6 kmh 29.89 in1012.2 mb 0.00 in0.0 mm 0.00 in0.0 mm 0.24 in6.1 mm
08:48 AM 58.5°F14.7°C 56.7°F13.7°C 94% 3.8 mph NNW6.1 kmh NNW 14.8 mph23.8 kmh 29.89 in1012.2 mb 0.00 in0.0 mm 0.00 in0.0 mm 0.24 in6.1 mm
08:43 AM 58.3°F14.6°C 56.8°F13.8°C 95% 2.5 mph NW4.0 kmh NW 11.6 mph18.7 kmh 29.89 in1012.2 mb 0.00 in0.0 mm 0.00 in0.0 mm 0.24 in6.1 mm
08:38 AM 57.9°F14.4°C 56.1°F13.4°C 94% 1.3 mph NNE2.1 kmh NNE 11.6 mph18.7 kmh 29.88 in1011.9 mb 0.00 in0.0 mm 0.00 in0.0 mm 0.24 in6.1 mm
08:33 AM 57.9°F14.4°C 56.5°F13.6°C 95% 2.0 mph WSW3.2 kmh WSW 12.8 mph20.6 kmh 29.89 in1012.2 mb 0.00 in0.0 mm 0.00 in0.0 mm 0.24 in6.1 mm
08:28 AM 57.7°F14.3°C 56.3°F13.5°C 95% 1.6 mph W2.6 kmh W 5.4 mph8.7 kmh 29.89 in1012.2 mb 0.00 in0.0 mm 0.00 in0.0 mm 0.24 in6.1 mm
08:23 AM 57.7°F14.3°C 56.3°F13.5°C 95% 2.2 mph N3.5 kmh N 6.3 mph10.1 kmh 29.88 in1011.9 mb 0.00 in0.0 mm 0.00 in0.0 mm 0.24 in6.1 mm
08:18 AM 57.6°F14.2°C 56.1°F13.4°C 95% 3.4 mph N5.5 kmh N 14.8 mph23.8 kmh 29.88 in1011.9 mb 0.00 in0.0 mm 0.00 in0.0 mm 0.24 in6.1 mm
08:13 AM 57.7°F14.3°C 56.3°F13.5°C 95% 2.7 mph N4.3 kmh N 12.8 mph20.6 kmh 29.88 in1011.9 mb 0.00 in0.0 mm 0.00 in0.0 mm 0.24 in6.1 mm
08:08 AM 57.7°F14.3°C 56.7°F13.7°C 96% 1.3 mph NW2.1 kmh NW 5.4 mph8.7 kmh 29.88 in1011.9 mb 0.00 in0.0 mm 0.00 in0.0 mm 0.24 in6.1 mm
08:03 AM 57.7°F14.3°C 56.7°F13.7°C 96% 1.1 mph N1.8 kmh N 9.6 mph15.4 kmh 29.88 in1011.9 mb 0.00 in0.0 mm 0.00 in0.0 mm 0.24 in6.1 mm
07:58 AM 57.7°F14.3°C 56.7°F13.7°C 96% 3.6 mph NW5.8 kmh NW 15.9 mph25.6 kmh 29.88 in1011.9 mb 0.01 in0.3 mm 0.00 in0.0 mm 0.24 in6.1 mm
07:53 AM 57.7°F14.3°C 56.7°F13.7°C 96% 0.9 mph NE1.4 kmh NE 7.4 mph11.9 kmh 29.87 in1011.5 mb 0.01 in0.3 mm 0.00 in0.0 mm 0.24 in6.1 mm
07:48 AM 57.7°F14.3°C 56.7°F13.7°C 96% 2.0 mph N3.2 kmh N 7.4 mph11.9 kmh 29.87 in1011.5 mb 0.01 in0.3 mm 0.00 in0.0 mm 0.24 in6.1 mm
07:43 AM 57.9°F14.4°C 56.8°F13.8°C 96% 1.8 mph NW2.9 kmh NW 6.3 mph10.1 kmh 29.87 in1011.5 mb 0.01 in0.3 mm 0.00 in0.0 mm 0.24 in6.1 mm
07:38 AM 58.3°F14.6°C 57.2°F14.0°C 96% 2.0 mph E3.2 kmh E 8.5 mph13.7 kmh 29.87 in1011.5 mb 0.01 in0.3 mm 0.00 in0.0 mm 0.24 in6.1 mm
07:33 AM 58.5°F14.7°C 57.4°F14.1°C 96% 2.7 mph 4.3 kmh 9.6 mph15.4 kmh 29.87 in1011.5 mb 0.01 in0.3 mm 0.00 in0.0 mm 0.24 in6.1 mm
07:28 AM 58.5°F14.7°C 57.4°F14.1°C 96% 0.4 mph W0.6 kmh W 8.5 mph13.7 kmh 29.87 in1011.5 mb 0.01 in0.3 mm 0.00 in0.0 mm 0.24 in6.1 mm
07:23 AM 58.5°F14.7°C 57.4°F14.1°C 96% 2.0 mph NNE3.2 kmh NNE 6.3 mph10.1 kmh 29.87 in1011.5 mb 0.01 in0.3 mm 0.00 in0.0 mm 0.24 in6.1 mm
07:18 AM 58.6°F14.8°C 57.6°F14.2°C 96% 2.2 mph NW3.5 kmh NW 6.3 mph10.1 kmh 29.87 in1011.5 mb 0.01 in0.3 mm 0.00 in0.0 mm 0.24 in6.1 mm
07:13 AM 58.6°F14.8°C 57.6°F14.2°C 96% 1.8 mph NNW2.9 kmh NNW 6.3 mph10.1 kmh 29.86 in1011.2 mb 0.01 in0.3 mm 0.00 in0.0 mm 0.24 in6.1 mm
07:08 AM 58.6°F14.8°C 57.6°F14.2°C 96% 0.7 mph NE1.1 kmh NE 6.3 mph10.1 kmh 29.86 in1011.2 mb 0.01 in0.3 mm 0.00 in0.0 mm 0.24 in6.1 mm
07:03 AM 58.6°F14.8°C 57.6°F14.2°C 96% 2.0 mph NW3.2 kmh NW 8.5 mph13.7 kmh 29.87 in1011.5 mb 0.02 in0.5 mm 0.01 in0.3 mm 0.24 in6.1 mm
06:58 AM 58.8°F14.9°C 57.9°F14.4°C 97% 0.9 mph NNW1.4 kmh NNW 4.3 mph6.9 kmh 29.86 in1011.2 mb 0.01 in0.3 mm 0.00 in0.0 mm 0.23 in5.8 mm
06:53 AM 58.6°F14.8°C 57.6°F14.2°C 96% 0.4 mph NNW0.6 kmh NNW 1.1 mph1.8 kmh 29.86 in1011.2 mb 0.01 in0.3 mm 0.00 in0.0 mm 0.23 in5.8 mm
06:48 AM 58.6°F14.8°C 57.6°F14.2°C 96% 0.4 mph N0.6 kmh N 3.1 mph5.0 kmh 29.86 in1011.2 mb 0.01 in0.3 mm 0.00 in0.0 mm 0.23 in5.8 mm
06:43 AM 58.6°F14.8°C 57.6°F14.2°C 96% 0.7 mph NNW1.1 kmh NNW 3.1 mph5.0 kmh 29.86 in1011.2 mb 0.01 in0.3 mm 0.00 in0.0 mm 0.23 in5.8 mm
06:38 AM 58.6°F14.8°C 57.6°F14.2°C 96% 0.9 mph NNW1.4 kmh NNW 5.4 mph8.7 kmh 29.85 in1010.8 mb 0.01 in0.3 mm 0.00 in0.0 mm 0.23 in5.8 mm
06:33 AM 58.8°F14.9°C 57.7°F14.3°C 96% 1.3 mph NNW2.1 kmh NNW 7.4 mph11.9 kmh 29.85 in1010.8 mb 0.01 in0.3 mm 0.00 in0.0 mm 0.23 in5.8 mm
06:28 AM 59.0°F15.0°C 57.9°F14.4°C 96% 0.7 mph E1.1 kmh E 5.4 mph8.7 kmh 29.85 in1010.8 mb 0.02 in0.5 mm 0.00 in0.0 mm 0.23 in5.8 mm
06:23 AM 59.2°F15.1°C 58.3°F14.6°C 97% 0.2 mph N0.3 kmh N 2.0 mph3.2 kmh 29.85 in1010.8 mb 0.03 in0.8 mm 0.00 in0.0 mm 0.23 in5.8 mm
06:18 AM 59.4°F15.2°C 58.5°F14.7°C 97% 1.1 mph NNW1.8 kmh NNW 5.4 mph8.7 kmh 29.85 in1010.8 mb 0.03 in0.8 mm 0.00 in0.0 mm 0.23 in5.8 mm
06:13 AM 59.4°F15.2°C 58.5°F14.7°C 97% 0.7 mph NNE1.1 kmh NNE 4.3 mph6.9 kmh 29.85 in1010.8 mb 0.04 in1.0 mm 0.12 in3.0 mm 0.23 in5.8 mm
06:08 AM 59.4°F15.2°C 58.5°F14.7°C 97% Calm Calm 1.1 mph1.8 kmh 29.85 in1010.8 mb 0.03 in0.8 mm 0.00 in0.0 mm 0.22 in5.6 mm
06:03 AM 59.4°F15.2°C 58.5°F14.7°C 97% Calm Calm 1.1 mph1.8 kmh 29.85 in1010.8 mb 0.04 in1.0 mm 0.00 in0.0 mm 0.22 in5.6 mm
05:58 AM 59.4°F15.2°C 58.5°F14.7°C 97% 0.7 mph NNW1.1 kmh NNW 2.0 mph3.2 kmh 29.85 in1010.8 mb 0.05 in1.3 mm 0.00 in0.0 mm 0.22 in5.6 mm
05:53 AM 59.4°F15.2°C 58.5°F14.7°C 97% 0.4 mph NNW0.6 kmh NNW 3.1 mph5.0 kmh 29.85 in1010.8 mb 0.06 in1.5 mm 0.00 in0.0 mm 0.22 in5.6 mm
05:48 AM 59.2°F15.1°C 58.1°F14.5°C 96% 0.2 mph SE0.3 kmh SE 4.3 mph6.9 kmh 29.85 in1010.8 mb 0.07 in1.8 mm 0.00 in0.0 mm 0.22 in5.6 mm
05:43 AM 59.2°F15.1°C 58.1°F14.5°C 96% 0.2 mph NNW0.3 kmh NNW 2.0 mph3.2 kmh 29.85 in1010.8 mb 0.08 in2.0 mm 0.00 in0.0 mm 0.22 in5.6 mm
05:38 AM 59.2°F15.1°C 58.1°F14.5°C 96% 0.2 mph NNW0.3 kmh NNW 2.0 mph3.2 kmh 29.85 in1010.8 mb 0.08 in2.0 mm 0.00 in0.0 mm 0.22 in5.6 mm
05:33 AM 59.0°F15.0°C 57.9°F14.4°C 96% Calm Calm 2.0 mph3.2 kmh 29.85 in1010.8 mb 0.08 in2.0 mm 0.00 in0.0 mm 0.21 in5.3 mm
05:28 AM 58.8°F14.9°C 57.7°F14.3°C 96% Calm Calm 2.0 mph3.2 kmh 29.85 in1010.8 mb 0.09 in2.3 mm 0.12 in3.0 mm 0.21 in5.3 mm
05:23 AM 58.8°F14.9°C 57.7°F14.3°C 96% Calm Calm 1.1 mph1.8 kmh 29.85 in1010.8 mb 0.08 in2.0 mm 0.00 in0.0 mm 0.20 in5.1 mm
05:18 AM 58.8°F14.9°C 57.7°F14.3°C 96% 0.2 mph N0.3 kmh N 2.0 mph3.2 kmh 29.85 in1010.8 mb 0.08 in2.0 mm 0.00 in0.0 mm 0.20 in5.1 mm
05:13 AM 58.8°F14.9°C 57.7°F14.3°C 96% Calm Calm 2.0 mph3.2 kmh 29.85 in1010.8 mb 0.08 in2.0 mm 0.12 in3.0 mm 0.19 in4.8 mm
05:08 AM 58.8°F14.9°C 57.4°F14.1°C 95% 0.2 mph NNE0.3 kmh NNE 2.0 mph3.2 kmh 29.85 in1010.8 mb 0.07 in1.8 mm 0.00 in0.0 mm 0.18 in4.6 mm
05:03 AM 58.8°F14.9°C 57.4°F14.1°C 95% Calm Calm 4.3 mph6.9 kmh 29.85 in1010.8 mb 0.08 in2.0 mm 0.01 in0.3 mm 0.18 in4.6 mm
04:58 AM 58.8°F14.9°C 57.4°F14.1°C 95% 0.4 mph N0.6 kmh N 2.0 mph3.2 kmh 29.85 in1010.8 mb 0.07 in1.8 mm 0.00 in0.0 mm 0.17 in4.3 mm
04:53 AM 58.8°F14.9°C 57.4°F14.1°C 95% 0.2 mph N0.3 kmh N 4.3 mph6.9 kmh 29.85 in1010.8 mb 0.07 in1.8 mm 0.00 in0.0 mm 0.16 in4.1 mm
04:48 AM 59.2°F15.1°C 58.1°F14.5°C 96% 0.4 mph WNW0.6 kmh WNW 2.0 mph3.2 kmh 29.85 in1010.8 mb 0.07 in1.8 mm 0.12 in3.0 mm 0.15 in3.8 mm
04:43 AM 59.2°F15.1°C 58.1°F14.5°C 96% Calm Calm -- 29.85 in1010.8 mb 0.06 in1.5 mm 0.00 in0.0 mm 0.14 in3.6 mm
04:38 AM 59.2°F15.1°C 58.1°F14.5°C 96% 0.2 mph N0.3 kmh N 3.1 mph5.0 kmh 29.85 in1010.8 mb 0.06 in1.5 mm 0.00 in0.0 mm 0.13 in3.3 mm
04:33 AM 59.2°F15.1°C 58.1°F14.5°C 96% 0.4 mph N0.6 kmh N 4.3 mph6.9 kmh 29.84 in1010.5 mb 0.06 in1.5 mm 0.00 in0.0 mm 0.13 in3.3 mm
04:28 AM 59.0°F15.0°C 57.9°F14.4°C 96% 1.6 mph NNE2.6 kmh NNE 7.4 mph11.9 kmh 29.84 in1010.5 mb 0.06 in1.5 mm 0.00 in0.0 mm 0.12 in3.0 mm
04:23 AM 59.2°F15.1°C 58.1°F14.5°C 96% 2.0 mph NE3.2 kmh NE 6.3 mph10.1 kmh 29.84 in1010.5 mb 0.08 in2.0 mm 0.00 in0.0 mm 0.12 in3.0 mm
04:18 AM 59.2°F15.1°C 58.1°F14.5°C 96% 1.8 mph NNE2.9 kmh NNE 4.3 mph6.9 kmh 29.84 in1010.5 mb 0.09 in2.3 mm 0.00 in0.0 mm 0.11 in2.8 mm
04:13 AM 59.4°F15.2°C 58.3°F14.6°C 96% Calm Calm 4.3 mph6.9 kmh 29.85 in1010.8 mb 0.11 in2.8 mm 0.00 in0.0 mm 0.11 in2.8 mm
04:08 AM 59.4°F15.2°C 58.3°F14.6°C 96% 0.4 mph N0.6 kmh N 2.0 mph3.2 kmh 29.85 in1010.8 mb 0.11 in2.8 mm 0.12 in3.0 mm 0.11 in2.8 mm
04:03 AM 59.4°F15.2°C 58.3°F14.6°C 96% 0.2 mph N0.3 kmh N 2.0 mph3.2 kmh 29.85 in1010.8 mb 0.10 in2.5 mm 0.01 in0.3 mm 0.10 in2.5 mm
03:58 AM 59.4°F15.2°C 57.9°F14.4°C 95% Calm Calm -- 29.85 in1010.8 mb 0.09 in2.3 mm 0.12 in3.0 mm 0.09 in2.3 mm
03:53 AM 59.5°F15.3°C 58.1°F14.5°C 95% Calm Calm -- 29.85 in1010.8 mb 0.08 in2.0 mm 0.00 in0.0 mm 0.08 in2.0 mm
03:48 AM 59.5°F15.3°C 58.1°F14.5°C 95% Calm Calm -- 29.86 in1011.2 mb 0.08 in2.0 mm 0.00 in0.0 mm 0.08 in2.0 mm
03:43 AM 59.5°F15.3°C 58.1°F14.5°C 95% Calm Calm -- 29.85 in1010.8 mb 0.08 in2.0 mm 0.12 in3.0 mm 0.08 in2.0 mm
03:38 AM 59.5°F15.3°C 58.1°F14.5°C 95% Calm Calm -- 29.86 in1011.2 mb 0.07 in1.8 mm 0.12 in3.0 mm 0.07 in1.8 mm
03:33 AM 59.7°F15.4°C 57.9°F14.4°C 94% Calm Calm 3.1 mph5.0 kmh 29.86 in1011.2 mb 0.06 in1.5 mm 0.00 in0.0 mm 0.06 in1.5 mm
03:28 AM 60.1°F15.6°C 58.3°F14.6°C 94% 0.7 mph W1.1 kmh W 4.3 mph6.9 kmh 29.86 in1011.2 mb 0.06 in1.5 mm 0.24 in6.1 mm 0.06 in1.5 mm
03:23 AM 60.3°F15.7°C 58.5°F14.7°C 94% 3.1 mph SSW5.0 kmh SSW 6.3 mph10.1 kmh 29.86 in1011.2 mb 0.04 in1.0 mm 0.36 in9.1 mm 0.04 in1.0 mm
03:18 AM 60.4°F15.8°C 58.6°F14.8°C 94% 3.4 mph WSW5.5 kmh WSW 5.4 mph8.7 kmh 29.87 in1011.5 mb 0.01 in0.3 mm 0.12 in3.0 mm 0.01 in0.3 mm
03:13 AM 60.4°F15.8°C 58.5°F14.7°C 93% 0.9 mph NW1.4 kmh NW 5.4 mph8.7 kmh 29.86 in1011.2 mb 0.00 in0.0 mm 0.00 in0.0 mm 0.00 in0.0 mm
03:08 AM 60.4°F15.8°C 58.5°F14.7°C 93% 1.1 mph N1.8 kmh N 4.3 mph6.9 kmh 29.86 in1011.2 mb 0.00 in0.0 mm 0.00 in0.0 mm 0.00 in0.0 mm
03:03 AM 60.4°F15.8°C 58.5°F14.7°C 93% 0.4 mph NNE0.6 kmh NNE 2.0 mph3.2 kmh 29.85 in1010.8 mb 0.00 in0.0 mm 0.00 in0.0 mm 0.00 in0.0 mm
02:58 AM 60.4°F15.8°C 58.5°F14.7°C 93% 0.2 mph N0.3 kmh N -- 29.85 in1010.8 mb 0.00 in0.0 mm 0.00 in0.0 mm 0.00 in0.0 mm
02:53 AM 60.4°F15.8°C 58.5°F14.7°C 93% Calm Calm 2.0 mph3.2 kmh 29.85 in1010.8 mb 0.00 in0.0 mm 0.00 in0.0 mm 0.00 in0.0 mm
02:48 AM 60.4°F15.8°C 58.5°F14.7°C 93% 0.7 mph NNW1.1 kmh NNW 2.0 mph3.2 kmh 29.85 in1010.8 mb 0.00 in0.0 mm 0.00 in0.0 mm 0.00 in0.0 mm
02:43 AM 60.4°F15.8°C 58.5°F14.7°C 93% Calm Calm 1.1 mph1.8 kmh 29.85 in1010.8 mb 0.00 in0.0 mm 0.00 in0.0 mm 0.00 in0.0 mm
02:38 AM 60.6°F15.9°C 58.6°F14.8°C 93% 0.7 mph NNW1.1 kmh NNW 3.1 mph5.0 kmh 29.85 in1010.8 mb 0.00 in0.0 mm 0.00 in0.0 mm 0.00 in0.0 mm
02:33 AM 60.6°F15.9°C 58.6°F14.8°C 93% 0.2 mph NW0.3 kmh NW 2.0 mph3.2 kmh 29.85 in1010.8 mb 0.00 in0.0 mm 0.00 in0.0 mm 0.00 in0.0 mm
02:27 AM 60.8°F16.0°C 58.8°F14.9°C 93% 0.7 mph NW1.1 kmh NW 2.0 mph3.2 kmh 29.86 in1011.2 mb 0.00 in0.0 mm 0.00 in0.0 mm 0.00 in0.0 mm
02:22 AM 61.0°F16.1°C 59.0°F15.0°C 93% 0.7 mph W1.1 kmh W 2.0 mph3.2 kmh 29.86 in1011.2 mb 0.00 in0.0 mm 0.00 in0.0 mm 0.00 in0.0 mm
02:17 AM 61.0°F16.1°C 59.0°F15.0°C 93% Calm Calm 1.1 mph1.8 kmh 29.86 in1011.2 mb 0.00 in0.0 mm 0.00 in0.0 mm 0.00 in0.0 mm
02:12 AM 61.0°F16.1°C 59.0°F15.0°C 93% Calm Calm 1.1 mph1.8 kmh 29.86 in1011.2 mb 0.00 in0.0 mm 0.00 in0.0 mm 0.00 in0.0 mm
02:07 AM 61.2°F16.2°C 59.2°F15.1°C 93% Calm Calm 1.1 mph1.8 kmh 29.86 in1011.2 mb 0.00 in0.0 mm 0.00 in0.0 mm 0.00 in0.0 mm
02:02 AM 61.2°F16.2°C 59.2°F15.1°C 93% 0.4 mph WNW0.6 kmh WNW 2.0 mph3.2 kmh 29.86 in1011.2 mb 0.00 in0.0 mm 0.00 in0.0 mm 0.00 in0.0 mm
01:57 AM 61.2°F16.2°C 59.4°F15.2°C 94% 0.2 mph NW0.3 kmh NW 5.4 mph8.7 kmh 29.87 in1011.5 mb 0.00 in0.0 mm 0.00 in0.0 mm 0.00 in0.0 mm
01:52 AM 61.3°F16.3°C 59.5°F15.3°C 94% 0.7 mph W1.1 kmh W 4.3 mph6.9 kmh 29.87 in1011.5 mb 0.00 in0.0 mm 0.00 in0.0 mm 0.00 in0.0 mm
01:47 AM 61.3°F16.3°C 59.5°F15.3°C 94% 0.2 mph N0.3 kmh N 1.1 mph1.8 kmh 29.86 in1011.2 mb 0.00 in0.0 mm 0.00 in0.0 mm 0.00 in0.0 mm
01:42 AM 61.3°F16.3°C 59.4°F15.2°C 93% 0.7 mph NNW1.1 kmh NNW 4.3 mph6.9 kmh 29.86 in1011.2 mb 0.00 in0.0 mm 0.00 in0.0 mm 0.00 in0.0 mm
01:37 AM 61.2°F16.2°C 59.2°F15.1°C 93% 1.1 mph WSW1.8 kmh WSW 4.3 mph6.9 kmh 29.85 in1010.8 mb 0.00 in0.0 mm 0.00 in0.0 mm 0.00 in0.0 mm
01:32 AM 61.0°F16.1°C 59.0°F15.0°C 93% 1.8 mph 2.9 kmh 6.3 mph10.1 kmh 29.85 in1010.8 mb 0.00 in0.0 mm 0.00 in0.0 mm 0.00 in0.0 mm
01:27 AM 61.0°F16.1°C 59.0°F15.0°C 93% 1.6 mph NW2.6 kmh NW 5.4 mph8.7 kmh 29.86 in1011.2 mb 0.00 in0.0 mm 0.00 in0.0 mm 0.00 in0.0 mm
01:22 AM 61.0°F16.1°C 59.2°F15.1°C 94% 0.7 mph NW1.1 kmh NW 7.4 mph11.9 kmh 29.87 in1011.5 mb 0.00 in0.0 mm 0.00 in0.0 mm 0.00 in0.0 mm
01:17 AM 61.0°F16.1°C 59.2°F15.1°C 94% 0.4 mph SE0.6 kmh SE 5.4 mph8.7 kmh 29.87 in1011.5 mb 0.00 in0.0 mm 0.00 in0.0 mm 0.00 in0.0 mm
01:12 AM 61.0°F16.1°C 59.2°F15.1°C 94% 1.1 mph WNW1.8 kmh WNW 4.3 mph6.9 kmh 29.87 in1011.5 mb 0.00 in0.0 mm 0.00 in0.0 mm 0.00 in0.0 mm
01:07 AM 61.2°F16.2°C 59.7°F15.4°C 95% 1.3 mph NW2.1 kmh NW 5.4 mph8.7 kmh 29.87 in1011.5 mb 0.00 in0.0 mm 0.00 in0.0 mm 0.00 in0.0 mm
01:02 AM 61.2°F16.2°C 59.7°F15.4°C 95% 0.4 mph NNW0.6 kmh NNW 5.4 mph8.7 kmh 29.87 in1011.5 mb 0.00 in0.0 mm 0.00 in0.0 mm 0.00 in0.0 mm
12:57 AM 61.2°F16.2°C 59.7°F15.4°C 95% 0.2 mph NW0.3 kmh NW 4.3 mph6.9 kmh 29.87 in1011.5 mb 0.00 in0.0 mm 0.00 in0.0 mm 0.00 in0.0 mm
12:52 AM 61.2°F16.2°C 59.7°F15.4°C 95% 2.7 mph WSW4.3 kmh WSW 4.3 mph6.9 kmh 29.87 in1011.5 mb 0.00 in0.0 mm 0.00 in0.0 mm 0.00 in0.0 mm
12:47 AM 61.0°F16.1°C 59.5°F15.3°C 95% 2.0 mph WNW3.2 kmh WNW 5.4 mph8.7 kmh 29.86 in1011.2 mb 0.00 in0.0 mm 0.00 in0.0 mm 0.00 in0.0 mm
12:42 AM 61.2°F16.2°C 59.7°F15.4°C 95% 3.4 mph WSW5.5 kmh WSW 4.3 mph6.9 kmh 29.87 in1011.5 mb 0.00 in0.0 mm 0.00 in0.0 mm 0.00 in0.0 mm
12:37 AM 61.2°F16.2°C 59.7°F15.4°C 95% 2.9 mph WSW4.7 kmh WSW 4.3 mph6.9 kmh 29.87 in1011.5 mb 0.00 in0.0 mm 0.00 in0.0 mm 0.00 in0.0 mm
12:32 AM 61.2°F16.2°C 59.7°F15.4°C 95% 2.0 mph W3.2 kmh W 5.4 mph8.7 kmh 29.87 in1011.5 mb 0.00 in0.0 mm 0.00 in0.0 mm 0.00 in0.0 mm
12:27 AM 61.2°F16.2°C 59.7°F15.4°C 95% 1.6 mph WSW2.6 kmh WSW 3.1 mph5.0 kmh 29.87 in1011.5 mb 0.00 in0.0 mm 0.00 in0.0 mm 0.00 in0.0 mm
12:22 AM 61.2°F16.2°C 59.7°F15.4°C 95% 1.6 mph SW2.6 kmh SW 4.3 mph6.9 kmh 29.86 in1011.2 mb 0.00 in0.0 mm 0.00 in0.0 mm 0.00 in0.0 mm
12:17 AM 61.2°F16.2°C 59.4°F15.2°C 94% 0.2 mph WSW0.3 kmh WSW 1.1 mph1.8 kmh 29.86 in1011.2 mb 0.00 in0.0 mm 0.00 in0.0 mm 0.00 in0.0 mm
12:12 AM 61.2°F16.2°C 59.4°F15.2°C 94% 0.2 mph WSW0.3 kmh WSW 2.0 mph3.2 kmh 29.86 in1011.2 mb 0.00 in0.0 mm 0.00 in0.0 mm 0.00 in0.0 mm
12:07 AM 61.2°F16.2°C 59.4°F15.2°C 94% 0.4 mph SW0.6 kmh SW 3.1 mph5.0 kmh 29.87 in1011.5 mb 0.00 in0.0 mm 0.00 in0.0 mm 0.00 in0.0 mm
12:02 AM -5537.2°C -5537.2°C - - N16091.8 kmh N 4.3 mph6.9 kmh 29.87 in1011.5 mb 0.00 in0.0 mm 0.00 in0.0 mm 0.00 in0.0 mm